sensor_id;sensor_type;location;lat;lon;timestamp;pressure;altitude;pressure_sealevel;temperature
78917;BMP280;68315;48.608;11.436;2023-08-07T00:02:23;96792.97;;;12.14
78917;BMP280;68315;48.608;11.436;2023-08-07T00:04:48;96810.19;;;12.07
78917;BMP280;68315;48.608;11.436;2023-08-07T00:07:13;96810.19;;;12.00
78917;BMP280;68315;48.608;11.436;2023-08-07T00:09:38;96816.97;;;11.99
78917;BMP280;68315;48.608;11.436;2023-08-07T00:12:04;96825.59;;;11.95
78917;BMP280;68315;48.608;11.436;2023-08-07T00:14:29;96815.50;;;11.90
78917;BMP280;68315;48.608;11.436;2023-08-07T00:16:54;96814.94;;;11.84
78917;BMP280;68315;48.608;11.436;2023-08-07T00:19:20;96809.06;;;11.80
78917;BMP280;68315;48.608;11.436;2023-08-07T00:21:45;96822.63;;;11.78
78917;BMP280;68315;48.608;11.436;2023-08-07T00:24:10;96808.50;;;11.74
78917;BMP280;68315;48.608;11.436;2023-08-07T00:26:35;96821.34;;;11.71
78917;BMP280;68315;48.608;11.436;2023-08-07T00:29:01;96806.28;;;11.72
78917;BMP280;68315;48.608;11.436;2023-08-07T00:31:26;96810.34;;;11.71
78917;BMP280;68315;48.608;11.436;2023-08-07T00:33:56;96801.50;;;11.65
78917;BMP280;68315;48.608;11.436;2023-08-07T00:36:21;96802.41;;;11.60
78917;BMP280;68315;48.608;11.436;2023-08-07T00:38:46;96810.66;;;11.60
78917;BMP280;68315;48.608;11.436;2023-08-07T00:41:11;96814.72;;;11.59
78917;BMP280;68315;48.608;11.436;2023-08-07T00:43:37;96818.53;;;11.56
78917;BMP280;68315;48.608;11.436;2023-08-07T00:46:02;96804.97;;;11.51
78917;BMP280;68315;48.608;11.436;2023-08-07T00:48:28;96812.28;;;11.48
78917;BMP280;68315;48.608;11.436;2023-08-07T00:50:54;96811.34;;;11.46
78917;BMP280;68315;48.608;11.436;2023-08-07T00:53:20;96817.78;;;11.48
78917;BMP280;68315;48.608;11.436;2023-08-07T00:55:46;96814.28;;;11.48
78917;BMP280;68315;48.608;11.436;2023-08-07T00:58:12;96818.34;;;11.47
78917;BMP280;68315;48.608;11.436;2023-08-07T01:00:37;96821.09;;;11.47
78917;BMP280;68315;48.608;11.436;2023-08-07T01:03:05;96822.03;;;11.49
78917;BMP280;68315;48.608;11.436;2023-08-07T01:05:31;96814.84;;;11.46
78917;BMP280;68315;48.608;11.436;2023-08-07T01:07:57;96814.66;;;11.44
78917;BMP280;68315;48.608;11.436;2023-08-07T01:10:29;96815.41;;;11.45
78917;BMP280;68315;48.608;11.436;2023-08-07T01:13:04;96823.47;;;11.43
78917;BMP280;68315;48.608;11.436;2023-08-07T01:15:32;96815.94;;;11.43
78917;BMP280;68315;48.608;11.436;2023-08-07T01:17:59;96808.97;;;11.42
78917;BMP280;68315;48.608;11.436;2023-08-07T01:20:25;96808.97;;;11.42
78917;BMP280;68315;48.608;11.436;2023-08-07T01:22:50;96804.94;;;11.43
78917;BMP280;68315;48.608;11.436;2023-08-07T01:25:18;96807.50;;;11.41
78917;BMP280;68315;48.608;11.436;2023-08-07T01:27:53;96824.00;;;11.41
78917;BMP280;68315;48.608;11.436;2023-08-07T01:30:26;96808.22;;;11.42
78917;BMP280;68315;48.608;11.436;2023-08-07T01:33:10;96803.47;;;11.42
78917;BMP280;68315;48.608;11.436;2023-08-07T01:35:41;96818.50;;;11.41
78917;BMP280;68315;48.608;11.436;2023-08-07T01:38:08;96820.88;;;11.37
78917;BMP280;68315;48.608;11.436;2023-08-07T01:40:34;96815.75;;;11.41
78917;BMP280;68315;48.608;11.436;2023-08-07T01:43:01;96812.78;;;11.39
78917;BMP280;68315;48.608;11.436;2023-08-07T01:45:28;96816.84;;;11.38
78917;BMP280;68315;48.608;11.436;2023-08-07T01:47:53;96820.13;;;11.37
78917;BMP280;68315;48.608;11.436;2023-08-07T01:50:20;96819.03;;;11.40
78917;BMP280;68315;48.608;11.436;2023-08-07T01:52:45;96834.06;;;11.39
78917;BMP280;68315;48.608;11.436;2023-08-07T01:55:15;96841.22;;;11.34
78917;BMP280;68315;48.608;11.436;2023-08-07T01:57:40;96832.44;;;11.36
78917;BMP280;68315;48.608;11.436;2023-08-07T02:00:06;96832.22;;;11.34
78917;BMP280;68315;48.608;11.436;2023-08-07T02:02:33;96833.28;;;11.31
78917;BMP280;68315;48.608;11.436;2023-08-07T02:04:58;96833.13;;;11.29
78917;BMP280;68315;48.608;11.436;2023-08-07T02:07:23;96844.69;;;11.27
78917;BMP280;68315;48.608;11.436;2023-08-07T02:09:49;96838.03;;;11.30
78917;BMP280;68315;48.608;11.436;2023-08-07T02:12:15;96838.78;;;11.31
78917;BMP280;68315;48.608;11.436;2023-08-07T02:14:40;96841.94;;;11.35
78917;BMP280;68315;48.608;11.436;2023-08-07T02:17:06;96842.69;;;11.35
78917;BMP280;68315;48.608;11.436;2023-08-07T02:19:31;96845.97;;;11.34
78917;BMP280;68315;48.608;11.436;2023-08-07T02:21:57;96852.75;;;11.33
78917;BMP280;68315;48.608;11.436;2023-08-07T02:24:22;96848.19;;;11.35
78917;BMP280;68315;48.608;11.436;2023-08-07T02:26:47;96853.28;;;11.31
78917;BMP280;68315;48.608;11.436;2023-08-07T02:29:12;96860.47;;;11.34
78917;BMP280;68315;48.608;11.436;2023-08-07T02:31:38;96877.91;;;11.37
78917;BMP280;68315;48.608;11.436;2023-08-07T02:34:03;96856.63;;;11.37
78917;BMP280;68315;48.608;11.436;2023-08-07T02:36:28;96865.44;;;11.36
78917;BMP280;68315;48.608;11.436;2023-08-07T02:38:53;96853.88;;;11.30
78917;BMP280;68315;48.608;11.436;2023-08-07T02:41:19;96860.63;;;11.29
78917;BMP280;68315;48.608;11.436;2023-08-07T02:43:44;96874.19;;;11.27
78917;BMP280;68315;48.608;11.436;2023-08-07T02:46:09;96866.88;;;11.29
78917;BMP280;68315;48.608;11.436;2023-08-07T02:48:34;96876.38;;;11.28
78917;BMP280;68315;48.608;11.436;2023-08-07T02:51:00;96877.47;;;11.25
78917;BMP280;68315;48.608;11.436;2023-08-07T02:53:25;96874.19;;;11.27
78917;BMP280;68315;48.608;11.436;2023-08-07T02:55:50;96886.66;;;11.28
78917;BMP280;68315;48.608;11.436;2023-08-07T02:58:15;96879.13;;;11.28
78917;BMP280;68315;48.608;11.436;2023-08-07T03:00:41;96896.53;;;11.23
78917;BMP280;68315;48.608;11.436;2023-08-07T03:03:06;96871.59;;;11.21
78917;BMP280;68315;48.608;11.436;2023-08-07T03:05:31;96877.28;;;11.23
78917;BMP280;68315;48.608;11.436;2023-08-07T03:07:57;96878.56;;;11.22
78917;BMP280;68315;48.608;11.436;2023-08-07T03:10:22;96883.88;;;11.20
78917;BMP280;68315;48.608;11.436;2023-08-07T03:12:47;96884.41;;;11.19
78917;BMP280;68315;48.608;11.436;2023-08-07T03:15:12;96882.72;;;11.16
78917;BMP280;68315;48.608;11.436;2023-08-07T03:17:38;96892.44;;;11.17
78917;BMP280;68315;48.608;11.436;2023-08-07T03:20:03;96888.94;;;11.16
78917;BMP280;68315;48.608;11.436;2023-08-07T03:22:29;96897.41;;;11.18
78917;BMP280;68315;48.608;11.436;2023-08-07T03:24:54;96890.63;;;11.19
78917;BMP280;68315;48.608;11.436;2023-08-07T03:27:20;96891.69;;;11.16
78917;BMP280;68315;48.608;11.436;2023-08-07T03:29:46;96897.78;;;11.15
78917;BMP280;68315;48.608;11.436;2023-08-07T03:32:11;96897.19;;;11.16
78917;BMP280;68315;48.608;11.436;2023-08-07T03:34:36;96896.47;;;11.16
78917;BMP280;68315;48.608;11.436;2023-08-07T03:37:02;96904.59;;;11.21
78917;BMP280;68315;48.608;11.436;2023-08-07T03:39:27;96903.50;;;11.24
78917;BMP280;68315;48.608;11.436;2023-08-07T03:41:52;96902.19;;;11.18
78917;BMP280;68315;48.608;11.436;2023-08-07T03:44:17;96910.09;;;11.21
78917;BMP280;68315;48.608;11.436;2023-08-07T03:46:43;96918.34;;;11.21
78917;BMP280;68315;48.608;11.436;2023-08-07T03:49:08;96922.56;;;11.22
78917;BMP280;68315;48.608;11.436;2023-08-07T03:51:33;96913.38;;;11.20
78917;BMP280;68315;48.608;11.436;2023-08-07T03:53:59;96915.97;;;11.25
78917;BMP280;68315;48.608;11.436;2023-08-07T03:56:24;96927.50;;;11.24
78917;BMP280;68315;48.608;11.436;2023-08-07T03:58:49;96926.59;;;11.21
78917;BMP280;68315;48.608;11.436;2023-08-07T04:01:16;96924.91;;;11.18
78917;BMP280;68315;48.608;11.436;2023-08-07T04:03:41;96930.19;;;11.16
78917;BMP280;68315;48.608;11.436;2023-08-07T04:06:09;96929.69;;;11.18
78917;BMP280;68315;48.608;11.436;2023-08-07T04:08:40;96921.44;;;11.18
78917;BMP280;68315;48.608;11.436;2023-08-07T04:11:05;96932.22;;;11.16
78917;BMP280;68315;48.608;11.436;2023-08-07T04:13:32;96927.66;;;11.18
78917;BMP280;68315;48.608;11.436;2023-08-07T04:15:57;96932.78;;;11.14
78917;BMP280;68315;48.608;11.436;2023-08-07T04:18:23;96940.84;;;11.12
78917;BMP280;68315;48.608;11.436;2023-08-07T04:20:50;96932.59;;;11.12
78917;BMP280;68315;48.608;11.436;2023-08-07T04:23:15;96934.41;;;11.10
78917;BMP280;68315;48.608;11.436;2023-08-07T04:25:41;96946.34;;;11.12
78917;BMP280;68315;48.608;11.436;2023-08-07T04:28:06;96948.53;;;11.14
78917;BMP280;68315;48.608;11.436;2023-08-07T04:30:31;96948.53;;;11.14
78917;BMP280;68315;48.608;11.436;2023-08-07T04:32:56;96945.78;;;11.14
78917;BMP280;68315;48.608;11.436;2023-08-07T04:35:22;96946.34;;;11.12
78917;BMP280;68315;48.608;11.436;2023-08-07T04:37:47;96948.88;;;11.10
78917;BMP280;68315;48.608;11.436;2023-08-07T04:40:12;96946.53;;;11.14
78917;BMP280;68315;48.608;11.436;2023-08-07T04:42:38;96963.03;;;11.14
78917;BMP280;68315;48.608;11.436;2023-08-07T04:45:03;96952.56;;;11.13
78917;BMP280;68315;48.608;11.436;2023-08-07T04:47:28;96960.28;;;11.14
78917;BMP280;68315;48.608;11.436;2023-08-07T04:49:54;96959.00;;;11.15
78917;BMP280;68315;48.608;11.436;2023-08-07T04:52:19;96963.56;;;11.13
78917;BMP280;68315;48.608;11.436;2023-08-07T04:54:44;96964.31;;;11.13
78917;BMP280;68315;48.608;11.436;2023-08-07T04:57:09;96963.03;;;11.14
78917;BMP280;68315;48.608;11.436;2023-08-07T04:59:35;96961.34;;;11.11
78917;BMP280;68315;48.608;11.436;2023-08-07T05:02:01;96964.09;;;11.11
78917;BMP280;68315;48.608;11.436;2023-08-07T05:04:26;96979.13;;;11.10
78917;BMP280;68315;48.608;11.436;2023-08-07T05:06:51;96966.31;;;11.13
78917;BMP280;68315;48.608;11.436;2023-08-07T05:09:16;96986.84;;;11.12
78917;BMP280;68315;48.608;11.436;2023-08-07T05:11:42;96975.31;;;11.13
78917;BMP280;68315;48.608;11.436;2023-08-07T05:14:07;96970.53;;;11.14
78917;BMP280;68315;48.608;11.436;2023-08-07T05:16:32;96978.38;;;11.10
78917;BMP280;68315;48.608;11.436;2023-08-07T05:18:57;96983.34;;;11.11
78917;BMP280;68315;48.608;11.436;2023-08-07T05:21:23;96975.63;;;11.10
78917;BMP280;68315;48.608;11.436;2023-08-07T05:23:48;96985.88;;;11.09
78917;BMP280;68315;48.608;11.436;2023-08-07T05:26:18;96982.97;;;11.07
78917;BMP280;68315;48.608;11.436;2023-08-07T05:28:43;96979.66;;;11.09
78917;BMP280;68315;48.608;11.436;2023-08-07T05:31:08;96984.81;;;11.12
78917;BMP280;68315;48.608;11.436;2023-08-07T05:33:33;96995.63;;;11.10
78917;BMP280;68315;48.608;11.436;2023-08-07T05:35:59;96988.47;;;11.07
78917;BMP280;68315;48.608;11.436;2023-08-07T05:38:24;97006.41;;;11.08
78917;BMP280;68315;48.608;11.436;2023-08-07T05:40:49;97001.47;;;11.07
78917;BMP280;68315;48.608;11.436;2023-08-07T05:43:14;97000.19;;;11.08
78917;BMP280;68315;48.608;11.436;2023-08-07T05:45:42;96993.97;;;11.07
78917;BMP280;68315;48.608;11.436;2023-08-07T05:48:07;97005.69;;;11.08
78917;BMP280;68315;48.608;11.436;2023-08-07T05:50:34;97011.91;;;11.08
78917;BMP280;68315;48.608;11.436;2023-08-07T05:52:59;97024.38;;;11.09
78917;BMP280;68315;48.608;11.436;2023-08-07T05:55:25;97022.59;;;11.12
78917;BMP280;68315;48.608;11.436;2023-08-07T05:57:50;97017.47;;;11.16
78917;BMP280;68315;48.608;11.436;2023-08-07T06:00:15;97026.44;;;11.16
78917;BMP280;68315;48.608;11.436;2023-08-07T06:02:43;97023.69;;;11.16
78917;BMP280;68315;48.608;11.436;2023-08-07T06:05:09;97027.03;;;11.15
78917;BMP280;68315;48.608;11.436;2023-08-07T06:07:36;97028.34;;;11.21
78917;BMP280;68315;48.608;11.436;2023-08-07T06:10:02;97033.72;;;11.27
78917;BMP280;68315;48.608;11.436;2023-08-07T06:12:27;97022.25;;;11.36
78917;BMP280;68315;48.608;11.436;2023-08-07T06:14:52;97031.75;;;11.35
78917;BMP280;68315;48.608;11.436;2023-08-07T06:17:18;97033.00;;;11.34
78917;BMP280;68315;48.608;11.436;2023-08-07T06:19:43;97030.13;;;11.39
78917;BMP280;68315;48.608;11.436;2023-08-07T06:22:08;97040.06;;;11.42
78917;BMP280;68315;48.608;11.436;2023-08-07T06:24:33;97033.81;;;11.42
78917;BMP280;68315;48.608;11.436;2023-08-07T06:26:58;97052.53;;;11.43
78917;BMP280;68315;48.608;11.436;2023-08-07T06:29:24;97042.66;;;11.48
78917;BMP280;68315;48.608;11.436;2023-08-07T06:31:50;97035.34;;;11.50
78917;BMP280;68315;48.608;11.436;2023-08-07T06:34:15;97051.84;;;11.50
78917;BMP280;68315;48.608;11.436;2023-08-07T06:36:40;97053.13;;;11.49
78917;BMP280;68315;48.608;11.436;2023-08-07T06:39:05;97049.84;;;11.51
78917;BMP280;68315;48.608;11.436;2023-08-07T06:41:31;97047.41;;;11.47
78917;BMP280;68315;48.608;11.436;2023-08-07T06:43:56;97051.84;;;11.50
78917;BMP280;68315;48.608;11.436;2023-08-07T06:46:21;97057.56;;;11.52
78917;BMP280;68315;48.608;11.436;2023-08-07T06:48:49;97061.44;;;11.57
78917;BMP280;68315;48.608;11.436;2023-08-07T06:51:15;97074.66;;;11.58
78917;BMP280;68315;48.608;11.436;2023-08-07T06:53:42;97065.13;;;11.59
78917;BMP280;68315;48.608;11.436;2023-08-07T06:56:07;97061.72;;;11.66
78917;BMP280;68315;48.608;11.436;2023-08-07T06:58:32;97059.91;;;11.76
78917;BMP280;68315;48.608;11.436;2023-08-07T07:00:57;97060.09;;;11.78
78917;BMP280;68315;48.608;11.436;2023-08-07T07:03:23;97068.00;;;11.82
78917;BMP280;68315;48.608;11.436;2023-08-07T07:05:49;97066.19;;;11.85
78917;BMP280;68315;48.608;11.436;2023-08-07T07:08:14;97075.22;;;11.93
78917;BMP280;68315;48.608;11.436;2023-08-07T07:10:40;97067.38;;;11.97
78917;BMP280;68315;48.608;11.436;2023-08-07T07:13:05;97064.47;;;12.02
78917;BMP280;68315;48.608;11.436;2023-08-07T07:15:31;97070.88;;;12.05
78917;BMP280;68315;48.608;11.436;2023-08-07T07:17:56;97069.66;;;12.13
78917;BMP280;68315;48.608;11.436;2023-08-07T07:20:21;97077.91;;;12.13
78917;BMP280;68315;48.608;11.436;2023-08-07T07:22:47;97084.16;;;12.14
78917;BMP280;68315;48.608;11.436;2023-08-07T07:25:12;97086.56;;;12.17
78917;BMP280;68315;48.608;11.436;2023-08-07T07:27:39;97081.44;;;12.21
78917;BMP280;68315;48.608;11.436;2023-08-07T07:30:05;97076.88;;;12.24
78917;BMP280;68315;48.608;11.436;2023-08-07T07:32:30;97086.47;;;12.30
78917;BMP280;68315;48.608;11.436;2023-08-07T07:34:55;97091.97;;;12.38
78917;BMP280;68315;48.608;11.436;2023-08-07T07:37:21;97097.91;;;12.49
78917;BMP280;68315;48.608;11.436;2023-08-07T07:39:46;97097.56;;;12.60
78917;BMP280;68315;48.608;11.436;2023-08-07T07:42:11;97104.59;;;12.69
78917;BMP280;68315;48.608;11.436;2023-08-07T07:44:36;97097.06;;;12.77
78917;BMP280;68315;48.608;11.436;2023-08-07T07:47:03;97102.03;;;12.86
78917;BMP280;68315;48.608;11.436;2023-08-07T07:49:30;97103.72;;;12.89
78917;BMP280;68315;48.608;11.436;2023-08-07T07:51:55;97110.00;;;12.97
78917;BMP280;68315;48.608;11.436;2023-08-07T07:54:20;97113.50;;;12.98
78917;BMP280;68315;48.608;11.436;2023-08-07T07:56:46;97106.88;;;13.01
78917;BMP280;68315;48.608;11.436;2023-08-07T07:59:12;97118.09;;;13.03
78917;BMP280;68315;48.608;11.436;2023-08-07T08:01:37;97119.41;;;13.09
78917;BMP280;68315;48.608;11.436;2023-08-07T08:04:03;97113.50;;;13.20
78917;BMP280;68315;48.608;11.436;2023-08-07T08:06:28;97124.34;;;13.26
78917;BMP280;68315;48.608;11.436;2023-08-07T08:08:53;97114.41;;;13.30
78917;BMP280;68315;48.608;11.436;2023-08-07T08:11:18;97119.06;;;13.35
78917;BMP280;68315;48.608;11.436;2023-08-07T08:13:44;97122.38;;;13.49
78917;BMP280;68315;48.608;11.436;2023-08-07T08:16:09;97125.28;;;13.59
78917;BMP280;68315;48.608;11.436;2023-08-07T08:18:34;97130.41;;;13.70
78917;BMP280;68315;48.608;11.436;2023-08-07T08:21:00;97139.66;;;13.80
78917;BMP280;68315;48.608;11.436;2023-08-07T08:23:25;97133.19;;;13.85
78917;BMP280;68315;48.608;11.436;2023-08-07T08:25:51;97136.69;;;13.85
78917;BMP280;68315;48.608;11.436;2023-08-07T08:28:16;97137.44;;;13.86
78917;BMP280;68315;48.608;11.436;2023-08-07T08:30:42;97149.94;;;13.87
78917;BMP280;68315;48.608;11.436;2023-08-07T08:33:07;97148.47;;;13.86
78917;BMP280;68315;48.608;11.436;2023-08-07T08:35:36;97147.34;;;13.89
78917;BMP280;68315;48.608;11.436;2023-08-07T08:38:01;97149.34;;;13.96
78917;BMP280;68315;48.608;11.436;2023-08-07T08:40:28;97154.88;;;14.03
78917;BMP280;68315;48.608;11.436;2023-08-07T08:42:55;97162.25;;;14.08
78917;BMP280;68315;48.608;11.436;2023-08-07T08:45:46;97171.63;;;14.13
78917;BMP280;68315;48.608;11.436;2023-08-07T08:48:18;97162.25;;;14.08
78917;BMP280;68315;48.608;11.436;2023-08-07T08:50:46;97156.91;;;14.10
78917;BMP280;68315;48.608;11.436;2023-08-07T08:53:15;97160.03;;;14.14
78917;BMP280;68315;48.608;11.436;2023-08-07T08:55:43;97169.41;;;14.19
78917;BMP280;68315;48.608;11.436;2023-08-07T08:58:15;97166.44;;;14.24
78917;BMP280;68315;48.608;11.436;2023-08-07T09:00:41;97171.22;;;14.24
78917;BMP280;68315;48.608;11.436;2023-08-07T09:03:06;97166.44;;;14.24
78917;BMP280;68315;48.608;11.436;2023-08-07T09:05:32;97172.50;;;14.23
78917;BMP280;68315;48.608;11.436;2023-08-07T09:07:58;97169.94;;;14.25
78917;BMP280;68315;48.608;11.436;2023-08-07T09:10:24;97165.31;;;14.27
78917;BMP280;68315;48.608;11.436;2023-08-07T09:12:54;97167.88;;;14.33
78917;BMP280;68315;48.608;11.436;2023-08-07T09:15:23;97169.88;;;14.40
78917;BMP280;68315;48.608;11.436;2023-08-07T09:17:48;97162.69;;;14.44
78917;BMP280;68315;48.608;11.436;2023-08-07T09:20:14;97176.28;;;14.58
78917;BMP280;68315;48.608;11.436;2023-08-07T09:22:41;97169.75;;;14.70
78917;BMP280;68315;48.608;11.436;2023-08-07T09:25:07;97166.91;;;14.85
78917;BMP280;68315;48.608;11.436;2023-08-07T09:27:35;97169.03;;;15.02
78917;BMP280;68315;48.608;11.436;2023-08-07T09:30:02;97164.88;;;15.18
78917;BMP280;68315;48.608;11.436;2023-08-07T09:32:27;97170.59;;;15.20
78917;BMP280;68315;48.608;11.436;2023-08-07T09:34:53;97167.81;;;15.20
78917;BMP280;68315;48.608;11.436;2023-08-07T09:37:18;97165.28;;;15.14
78917;BMP280;68315;48.608;11.436;2023-08-07T09:39:43;97177.13;;;15.07
78917;BMP280;68315;48.608;11.436;2023-08-07T09:42:15;97185.47;;;15.00
78917;BMP280;68315;48.608;11.436;2023-08-07T09:44:41;97191.59;;;14.98
78917;BMP280;68315;48.608;11.436;2023-08-07T09:47:14;97187.91;;;14.96
78917;BMP280;68315;48.608;11.436;2023-08-07T09:49:40;97182.38;;;14.96
78917;BMP280;68315;48.608;11.436;2023-08-07T09:52:06;97182.91;;;14.94
78917;BMP280;68315;48.608;11.436;2023-08-07T09:54:33;97191.59;;;14.98
78917;BMP280;68315;48.608;11.436;2023-08-07T09:56:59;97193.03;;;14.99
78917;BMP280;68315;48.608;11.436;2023-08-07T09:59:26;97202.81;;;15.00
78917;BMP280;68315;48.608;11.436;2023-08-07T10:01:53;97199.69;;;15.04
78917;BMP280;68315;48.608;11.436;2023-08-07T10:04:18;97206.28;;;15.08
78917;BMP280;68315;48.608;11.436;2023-08-07T10:06:43;97211.94;;;15.18
78917;BMP280;68315;48.608;11.436;2023-08-07T10:09:09;97222.78;;;15.23
78917;BMP280;68315;48.608;11.436;2023-08-07T10:11:34;97217.47;;;15.18
78917;BMP280;68315;48.608;11.436;2023-08-07T10:14:00;97234.63;;;15.16
78917;BMP280;68315;48.608;11.436;2023-08-07T10:16:26;97217.13;;;15.14
78917;BMP280;68315;48.608;11.436;2023-08-07T10:18:52;97222.81;;;15.16
78917;BMP280;68315;48.608;11.436;2023-08-07T10:21:18;97225.97;;;15.20
78917;BMP280;68315;48.608;11.436;2023-08-07T10:23:44;97224.47;;;15.19
78917;BMP280;68315;48.608;11.436;2023-08-07T10:26:10;97223.34;;;15.22
78917;BMP280;68315;48.608;11.436;2023-08-07T10:28:37;97219.59;;;15.27
78917;BMP280;68315;48.608;11.436;2023-08-07T10:31:05;97216.81;;;15.34
78917;BMP280;68315;48.608;11.436;2023-08-07T10:33:31;97212.31;;;15.47
78917;BMP280;68315;48.608;11.436;2023-08-07T10:35:57;97210.22;;;15.55
78917;BMP280;68315;48.608;11.436;2023-08-07T10:38:23;97215.13;;;15.64
78917;BMP280;68315;48.608;11.436;2023-08-07T10:41:13;97199.19;;;15.72
78917;BMP280;68315;48.608;11.436;2023-08-07T10:43:41;97206.16;;;15.80
78917;BMP280;68315;48.608;11.436;2023-08-07T10:46:12;97211.69;;;15.97
78917;BMP280;68315;48.608;11.436;2023-08-07T10:48:39;97200.56;;;16.22
78917;BMP280;68315;48.608;11.436;2023-08-07T10:51:04;97203.63;;;16.43
78917;BMP280;68315;48.608;11.436;2023-08-07T10:53:31;97205.38;;;16.65
78917;BMP280;68315;48.608;11.436;2023-08-07T10:55:57;97196.63;;;16.86
78917;BMP280;68315;48.608;11.436;2023-08-07T10:58:23;97192.50;;;17.04
78917;BMP280;68315;48.608;11.436;2023-08-07T11:00:50;97196.91;;;17.16
78917;BMP280;68315;48.608;11.436;2023-08-07T11:03:27;97197.41;;;17.22
78917;BMP280;68315;48.608;11.436;2023-08-07T11:05:53;97213.94;;;17.30
78917;BMP280;68315;48.608;11.436;2023-08-07T11:08:22;97193.47;;;17.35
78917;BMP280;68315;48.608;11.436;2023-08-07T11:10:50;97210.59;;;17.31
78917;BMP280;68315;48.608;11.436;2023-08-07T11:13:16;97197.72;;;17.36
78917;BMP280;68315;48.608;11.436;2023-08-07T11:15:41;97198.91;;;17.33
78917;BMP280;68315;48.608;11.436;2023-08-07T11:18:07;97200.66;;;17.38
78917;BMP280;68315;48.608;11.436;2023-08-07T11:20:34;97200.56;;;17.45
78917;BMP280;68315;48.608;11.436;2023-08-07T11:23:00;97213.75;;;17.55
78917;BMP280;68315;48.608;11.436;2023-08-07T11:25:26;97203.72;;;17.69
78917;BMP280;68315;48.608;11.436;2023-08-07T11:27:51;97209.31;;;17.88
78917;BMP280;68315;48.608;11.436;2023-08-07T11:30:16;97204.03;;;18.11
78917;BMP280;68315;48.608;11.436;2023-08-07T11:32:42;97222.53;;;18.16
78917;BMP280;68315;48.608;11.436;2023-08-07T11:35:07;97211.97;;;18.05
78917;BMP280;68315;48.608;11.436;2023-08-07T11:37:33;97216.47;;;17.91
78917;BMP280;68315;48.608;11.436;2023-08-07T11:40:02;97222.13;;;17.83
78917;BMP280;68315;48.608;11.436;2023-08-07T11:42:28;97217.97;;;17.56
78917;BMP280;68315;48.608;11.436;2023-08-07T11:44:54;97220.56;;;17.34
78917;BMP280;68315;48.608;11.436;2023-08-07T11:47:19;97224.47;;;17.31
78917;BMP280;68315;48.608;11.436;2023-08-07T11:49:44;97217.00;;;17.24
78917;BMP280;68315;48.608;11.436;2023-08-07T11:52:10;97213.78;;;17.28
78917;BMP280;68315;48.608;11.436;2023-08-07T11:54:36;97224.97;;;17.37
78917;BMP280;68315;48.608;11.436;2023-08-07T11:57:01;97223.78;;;17.40
78917;BMP280;68315;48.608;11.436;2023-08-07T11:59:26;97222.63;;;17.43
78917;BMP280;68315;48.608;11.436;2023-08-07T12:01:52;97223.13;;;17.59
78917;BMP280;68315;48.608;11.436;2023-08-07T12:04:17;97221.13;;;17.79
78917;BMP280;68315;48.608;11.436;2023-08-07T12:06:55;97223.78;;;17.86
78917;BMP280;68315;48.608;11.436;2023-08-07T12:09:21;97221.47;;;18.02
78917;BMP280;68315;48.608;11.436;2023-08-07T12:11:46;97223.53;;;18.20
78917;BMP280;68315;48.608;11.436;2023-08-07T12:14:16;97223.81;;;18.53
78917;BMP280;68315;48.608;11.436;2023-08-07T12:16:44;97222.50;;;18.63
78917;BMP280;68315;48.608;11.436;2023-08-07T12:19:10;97226.00;;;18.45
78917;BMP280;68315;48.608;11.436;2023-08-07T12:21:36;97216.06;;;18.51
78917;BMP280;68315;48.608;11.436;2023-08-07T12:24:01;97216.19;;;18.63
78917;BMP280;68315;48.608;11.436;2023-08-07T12:26:26;97217.63;;;18.83
78917;BMP280;68315;48.608;11.436;2023-08-07T12:28:52;97224.69;;;18.65
78917;BMP280;68315;48.608;11.436;2023-08-07T12:31:18;97209.31;;;18.64
78917;BMP280;68315;48.608;11.436;2023-08-07T12:33:43;97211.88;;;18.81
78917;BMP280;68315;48.608;11.436;2023-08-07T12:36:09;97219.91;;;19.06
78917;BMP280;68315;48.608;11.436;2023-08-07T12:38:35;97222.56;;;19.34
78917;BMP280;68315;48.608;11.436;2023-08-07T12:41:00;97223.84;;;19.73
78917;BMP280;68315;48.608;11.436;2023-08-07T12:43:28;97219.19;;;20.09
78917;BMP280;68315;48.608;11.436;2023-08-07T12:45:53;97235.09;;;20.06
78917;BMP280;68315;48.608;11.436;2023-08-07T12:48:18;97234.00;;;20.11
78917;BMP280;68315;48.608;11.436;2023-08-07T12:50:44;97228.53;;;20.13
78917;BMP280;68315;48.608;11.436;2023-08-07T12:53:09;97233.66;;;20.38
78917;BMP280;68315;48.608;11.436;2023-08-07T12:55:35;97244.63;;;20.57
78917;BMP280;68315;48.608;11.436;2023-08-07T12:58:01;97249.50;;;20.56
78917;BMP280;68315;48.608;11.436;2023-08-07T13:00:26;97243.06;;;20.65
78917;BMP280;68315;48.608;11.436;2023-08-07T13:02:52;97247.91;;;20.97
78917;BMP280;68315;48.608;11.436;2023-08-07T13:05:19;97243.06;;;21.09
78917;BMP280;68315;48.608;11.436;2023-08-07T13:07:46;97238.22;;;21.22
78917;BMP280;68315;48.608;11.436;2023-08-07T13:10:13;97257.75;;;21.10
78917;BMP280;68315;48.608;11.436;2023-08-07T13:12:40;97255.63;;;20.76
78917;BMP280;68315;48.608;11.436;2023-08-07T13:15:08;97248.28;;;20.27
78917;BMP280;68315;48.608;11.436;2023-08-07T13:17:34;97245.91;;;19.91
78917;BMP280;68315;48.608;11.436;2023-08-07T13:20:01;97255.75;;;19.61
78917;BMP280;68315;48.608;11.436;2023-08-07T13:22:26;97263.88;;;19.47
78917;BMP280;68315;48.608;11.436;2023-08-07T13:24:52;97240.44;;;19.41
78917;BMP280;68315;48.608;11.436;2023-08-07T13:27:17;97244.31;;;19.26
78917;BMP280;68315;48.608;11.436;2023-08-07T13:29:43;97260.38;;;19.07
78917;BMP280;68315;48.608;11.436;2023-08-07T13:32:09;97255.28;;;18.84
78917;BMP280;68315;48.608;11.436;2023-08-07T13:34:37;97259.25;;;18.72
78917;BMP280;68315;48.608;11.436;2023-08-07T13:37:04;97259.41;;;18.64
78917;BMP280;68315;48.608;11.436;2023-08-07T13:39:30;97268.22;;;18.60
78917;BMP280;68315;48.608;11.436;2023-08-07T13:41:55;97281.22;;;18.39
78917;BMP280;68315;48.608;11.436;2023-08-07T13:44:20;97279.88;;;18.21
78917;BMP280;68315;48.608;11.436;2023-08-07T13:46:47;97290.25;;;18.01
78917;BMP280;68315;48.608;11.436;2023-08-07T13:49:13;97287.44;;;17.82
78917;BMP280;68315;48.608;11.436;2023-08-07T13:51:38;97292.66;;;17.69